createdAt,value
2023-03-26T00:05:53.768Z,78.60
2023-03-26T00:20:55.514Z,70.70
2023-03-26T00:35:57.256Z,68.70
2023-03-26T00:50:58.778Z,67.40
2023-03-26T01:06:00.236Z,65.03
2023-03-26T01:21:01.727Z,60.67
2023-03-26T01:36:03.244Z,57.70
2023-03-26T01:51:04.767Z,53.70
2023-03-26T02:06:06.353Z,51.10
2023-03-26T02:21:07.885Z,48.80
2023-03-26T02:36:09.482Z,48.03
2023-03-26T02:51:10.965Z,43.70
2023-03-26T03:06:12.492Z,41.60
2023-03-26T03:21:13.952Z,41.10
2023-03-26T03:36:19.715Z,38.43
2023-03-26T03:51:22.568Z,35.53
2023-03-26T04:06:24.218Z,35.63
2023-03-26T04:21:25.847Z,34.13
2023-03-26T04:36:27.338Z,32.37
2023-03-26T04:51:28.977Z,28.90
2023-03-26T05:06:30.568Z,28.17
2023-03-26T05:21:32.142Z,28.83
2023-03-26T05:36:33.693Z,26.23
2023-03-26T05:51:35.209Z,24.77
2023-03-26T06:06:36.723Z,22.47
2023-03-26T06:21:38.280Z,19.90
2023-03-26T06:36:39.974Z,18.83
2023-03-26T06:51:41.652Z,18.57
2023-03-26T07:06:43.224Z,19.87
2023-03-26T07:21:44.767Z,17.67
2023-03-26T07:36:46.285Z,19.37
2023-03-26T07:51:47.786Z,21.37
2023-03-26T08:06:49.333Z,25.03
2023-03-26T08:21:51.102Z,25.83
2023-03-26T08:36:52.770Z,18.57
2023-03-26T08:51:54.470Z,22.00
2023-03-26T09:06:56.293Z,24.50
2023-03-26T09:21:57.909Z,20.80
2023-03-26T09:36:59.479Z,18.47
2023-03-26T09:52:01.012Z,15.17
2023-03-26T10:07:02.952Z,97.20
2023-03-26T10:22:04.523Z,93.00
2023-03-26T10:37:06.047Z,86.80
2023-03-26T10:52:07.586Z,89.07
2023-03-26T11:07:09.131Z,79.83
2023-03-26T11:22:10.881Z,75.23
2023-03-26T11:37:12.416Z,70.77
2023-03-26T11:52:13.905Z,59.73
2023-03-26T12:07:15.463Z,51.90
2023-03-26T12:22:17.022Z,48.10
2023-03-26T12:37:18.810Z,42.23
2023-03-26T12:52:21.076Z,44.63
2023-03-26T13:07:22.731Z,38.87
2023-03-26T13:22:24.232Z,34.70
2023-03-26T13:37:25.821Z,29.67
2023-03-26T13:52:27.383Z,27.90
2023-03-26T14:07:28.848Z,23.67
2023-03-26T14:22:30.282Z,24.53
2023-03-26T14:37:31.755Z,20.57
2023-03-26T14:52:33.226Z,19.50
2023-03-26T15:07:34.786Z,17.70
2023-03-26T15:22:36.340Z,16.07
2023-03-26T15:37:37.803Z,14.60
2023-03-26T15:52:39.351Z,13.27
2023-03-26T16:07:40.878Z,13.83
2023-03-26T16:22:43.850Z,11.20
2023-03-26T16:37:45.581Z,12.87
2023-03-26T16:52:47.163Z,9.73
2023-03-26T17:07:48.702Z,9.33
2023-03-26T17:22:50.709Z,9.67
2023-03-26T17:37:52.296Z,9.07
2023-03-26T17:52:56.637Z,11.37
2023-03-26T18:07:58.138Z,6.93
2023-03-26T18:22:59.669Z,8.30
2023-03-26T18:38:01.186Z,7.53
2023-03-26T18:53:02.824Z,6.97
2023-03-26T19:08:04.333Z,6.77
2023-03-26T19:23:05.872Z,7.33
2023-03-26T19:38:07.395Z,8.20
2023-03-26T19:53:16.049Z,6.63
2023-03-26T20:08:18.685Z,6.97
2023-03-26T20:23:20.234Z,4.93
2023-03-26T20:38:26.552Z,11.63
2023-03-26T20:53:34.474Z,6.50
2023-03-26T21:08:35.923Z,6.90
2023-03-26T21:23:39.114Z,8.33
2023-03-26T21:38:40.695Z,5.53
2023-03-26T21:53:42.199Z,7.03
2023-03-26T22:08:43.987Z,5.57
2023-03-26T22:23:45.445Z,6.07
2023-03-26T22:38:46.921Z,5.23
2023-03-26T22:53:48.396Z,4.53
2023-03-26T23:08:49.972Z,4.03
2023-03-26T23:23:51.452Z,5.37
2023-03-26T23:38:52.919Z,4.87
2023-03-26T23:53:54.421Z,4.93
